sensor_id;sensor_type;location;lat;lon;timestamp;P1;durP1;ratioP1;P2;durP2;ratioP2
5704;SDS011;2877;48.238;11.160;2022-11-18T00:00:47;0.90;;;0.53;;
5704;SDS011;2877;48.238;11.160;2022-11-18T00:03:13;2.00;;;0.50;;
5704;SDS011;2877;48.238;11.160;2022-11-18T00:05:39;0.50;;;0.50;;
5704;SDS011;2877;48.238;11.160;2022-11-18T00:08:05;0.50;;;0.50;;
5704;SDS011;2877;48.238;11.160;2022-11-18T00:10:30;0.60;;;0.50;;
5704;SDS011;2877;48.238;11.160;2022-11-18T00:12:56;0.47;;;0.40;;
5704;SDS011;2877;48.238;11.160;2022-11-18T00:15:40;0.30;;;0.30;;
5704;SDS011;2877;48.238;11.160;2022-11-18T00:18:06;0.60;;;0.50;;
5704;SDS011;2877;48.238;11.160;2022-11-18T00:20:32;1.47;;;0.40;;
5704;SDS011;2877;48.238;11.160;2022-11-18T00:23:00;0.70;;;0.60;;
5704;SDS011;2877;48.238;11.160;2022-11-18T00:25:26;1.53;;;0.40;;
5704;SDS011;2877;48.238;11.160;2022-11-18T00:27:52;0.40;;;0.40;;
5704;SDS011;2877;48.238;11.160;2022-11-18T00:30:18;0.50;;;0.50;;
5704;SDS011;2877;48.238;11.160;2022-11-18T00:32:44;3.70;;;0.40;;
5704;SDS011;2877;48.238;11.160;2022-11-18T00:35:09;0.50;;;0.50;;
5704;SDS011;2877;48.238;11.160;2022-11-18T00:37:35;1.77;;;0.60;;
5704;SDS011;2877;48.238;11.160;2022-11-18T00:40:01;0.50;;;0.50;;
5704;SDS011;2877;48.238;11.160;2022-11-18T00:42:26;3.00;;;0.50;;
5704;SDS011;2877;48.238;11.160;2022-11-18T00:45:10;0.40;;;0.40;;
5704;SDS011;2877;48.238;11.160;2022-11-18T00:47:36;0.60;;;0.50;;
5704;SDS011;2877;48.238;11.160;2022-11-18T00:50:02;0.50;;;0.50;;
5704;SDS011;2877;48.238;11.160;2022-11-18T00:52:28;0.47;;;0.47;;
5704;SDS011;2877;48.238;11.160;2022-11-18T00:54:53;0.47;;;0.40;;
5704;SDS011;2877;48.238;11.160;2022-11-18T00:57:19;0.40;;;0.40;;
5704;SDS011;2877;48.238;11.160;2022-11-18T00:59:44;1.80;;;0.50;;
5704;SDS011;2877;48.238;11.160;2022-11-18T01:02:10;0.63;;;0.50;;
5704;SDS011;2877;48.238;11.160;2022-11-18T01:04:35;0.40;;;0.40;;
5704;SDS011;2877;48.238;11.160;2022-11-18T01:07:01;4.20;;;0.50;;
5704;SDS011;2877;48.238;11.160;2022-11-18T01:09:26;0.60;;;0.60;;
5704;SDS011;2877;48.238;11.160;2022-11-18T01:11:52;0.57;;;0.57;;
5704;SDS011;2877;48.238;11.160;2022-11-18T01:14:36;0.50;;;0.50;;
5704;SDS011;2877;48.238;11.160;2022-11-18T01:17:02;0.40;;;0.40;;
5704;SDS011;2877;48.238;11.160;2022-11-18T01:19:27;0.40;;;0.40;;
5704;SDS011;2877;48.238;11.160;2022-11-18T01:21:53;0.60;;;0.60;;
5704;SDS011;2877;48.238;11.160;2022-11-18T01:24:20;1.27;;;0.57;;
5704;SDS011;2877;48.238;11.160;2022-11-18T01:26:46;0.60;;;0.60;;
5704;SDS011;2877;48.238;11.160;2022-11-18T01:29:12;0.60;;;0.60;;
5704;SDS011;2877;48.238;11.160;2022-11-18T01:31:37;0.60;;;0.60;;
5704;SDS011;2877;48.238;11.160;2022-11-18T01:34:03;0.53;;;0.53;;
5704;SDS011;2877;48.238;11.160;2022-11-18T01:36:29;5.77;;;0.70;;
5704;SDS011;2877;48.238;11.160;2022-11-18T01:38:55;0.80;;;0.80;;
5704;SDS011;2877;48.238;11.160;2022-11-18T01:41:22;0.93;;;0.70;;
5704;SDS011;2877;48.238;11.160;2022-11-18T01:43:51;0.60;;;0.60;;
5704;SDS011;2877;48.238;11.160;2022-11-18T01:46:29;1.13;;;0.50;;
5704;SDS011;2877;48.238;11.160;2022-11-18T01:48:59;0.70;;;0.70;;
5704;SDS011;2877;48.238;11.160;2022-11-18T01:51:33;0.60;;;0.60;;
5704;SDS011;2877;48.238;11.160;2022-11-18T01:54:30;1.90;;;0.93;;
5704;SDS011;2877;48.238;11.160;2022-11-18T01:57:01;1.90;;;0.80;;
5704;SDS011;2877;48.238;11.160;2022-11-18T01:59:30;1.27;;;0.70;;
5704;SDS011;2877;48.238;11.160;2022-11-18T02:01:58;0.50;;;0.50;;
5704;SDS011;2877;48.238;11.160;2022-11-18T02:04:26;1.33;;;0.77;;
5704;SDS011;2877;48.238;11.160;2022-11-18T02:06:52;1.30;;;0.77;;
5704;SDS011;2877;48.238;11.160;2022-11-18T02:09:19;0.60;;;0.47;;
5704;SDS011;2877;48.238;11.160;2022-11-18T02:11:45;1.13;;;0.47;;
5704;SDS011;2877;48.238;11.160;2022-11-18T02:14:15;2.30;;;1.20;;
5704;SDS011;2877;48.238;11.160;2022-11-18T02:19:46;0.50;;;0.40;;
5704;SDS011;2877;48.238;11.160;2022-11-18T02:25:28;1.53;;;0.50;;
5704;SDS011;2877;48.238;11.160;2022-11-18T02:30:44;0.47;;;0.47;;
5704;SDS011;2877;48.238;11.160;2022-11-18T02:33:26;2.97;;;0.63;;
5704;SDS011;2877;48.238;11.160;2022-11-18T02:36:04;1.10;;;0.60;;
5704;SDS011;2877;48.238;11.160;2022-11-18T02:38:42;4.03;;;0.60;;
5704;SDS011;2877;48.238;11.160;2022-11-18T02:41:13;4.63;;;0.63;;
5704;SDS011;2877;48.238;11.160;2022-11-18T02:43:43;0.60;;;0.60;;
5704;SDS011;2877;48.238;11.160;2022-11-18T02:46:17;0.60;;;0.60;;
5704;SDS011;2877;48.238;11.160;2022-11-18T02:48:48;0.70;;;0.70;;
5704;SDS011;2877;48.238;11.160;2022-11-18T02:51:20;0.97;;;0.67;;
5704;SDS011;2877;48.238;11.160;2022-11-18T02:53:49;5.20;;;0.80;;
5704;SDS011;2877;48.238;11.160;2022-11-18T02:56:16;1.60;;;0.80;;
5704;SDS011;2877;48.238;11.160;2022-11-18T02:58:43;2.30;;;0.80;;
5704;SDS011;2877;48.238;11.160;2022-11-18T03:01:24;3.33;;;0.70;;
5704;SDS011;2877;48.238;11.160;2022-11-18T03:03:53;0.70;;;0.70;;
5704;SDS011;2877;48.238;11.160;2022-11-18T03:06:29;1.10;;;0.70;;
5704;SDS011;2877;48.238;11.160;2022-11-18T03:12:27;0.40;;;0.40;;
5704;SDS011;2877;48.238;11.160;2022-11-18T03:20:29;0.87;;;0.50;;
5704;SDS011;2877;48.238;11.160;2022-11-18T03:34:08;1.13;;;0.50;;
5704;SDS011;2877;48.238;11.160;2022-11-18T03:36:40;0.50;;;0.50;;
5704;SDS011;2877;48.238;11.160;2022-11-18T03:39:11;1.33;;;0.50;;
5704;SDS011;2877;48.238;11.160;2022-11-18T03:41:39;0.70;;;0.50;;
5704;SDS011;2877;48.238;11.160;2022-11-18T03:44:11;0.40;;;0.40;;
5704;SDS011;2877;48.238;11.160;2022-11-18T03:46:42;1.43;;;0.40;;
5704;SDS011;2877;48.238;11.160;2022-11-18T03:52:10;0.50;;;0.50;;
5704;SDS011;2877;48.238;11.160;2022-11-18T03:54:42;0.40;;;0.40;;
5704;SDS011;2877;48.238;11.160;2022-11-18T03:57:53;0.40;;;0.40;;
5704;SDS011;2877;48.238;11.160;2022-11-18T04:00:08;0.33;;;0.33;;
5704;SDS011;2877;48.238;11.160;2022-11-18T04:02:36;0.30;;;0.30;;
5704;SDS011;2877;48.238;11.160;2022-11-18T04:05:03;0.40;;;0.37;;
5704;SDS011;2877;48.238;11.160;2022-11-18T04:07:32;0.30;;;0.30;;
5704;SDS011;2877;48.238;11.160;2022-11-18T04:10:05;0.40;;;0.40;;
5704;SDS011;2877;48.238;11.160;2022-11-18T04:12:48;0.30;;;0.30;;
5704;SDS011;2877;48.238;11.160;2022-11-18T04:15:20;0.40;;;0.40;;
5704;SDS011;2877;48.238;11.160;2022-11-18T04:17:46;1.03;;;0.40;;
5704;SDS011;2877;48.238;11.160;2022-11-18T04:20:12;0.77;;;0.33;;
5704;SDS011;2877;48.238;11.160;2022-11-18T04:22:44;0.30;;;0.30;;
5704;SDS011;2877;48.238;11.160;2022-11-18T04:25:10;0.40;;;0.40;;
5704;SDS011;2877;48.238;11.160;2022-11-18T04:27:36;0.40;;;0.40;;
5704;SDS011;2877;48.238;11.160;2022-11-18T04:30:01;0.30;;;0.30;;
5704;SDS011;2877;48.238;11.160;2022-11-18T04:32:28;0.30;;;0.30;;
5704;SDS011;2877;48.238;11.160;2022-11-18T04:34:53;0.30;;;0.30;;
5704;SDS011;2877;48.238;11.160;2022-11-18T04:37:19;0.70;;;0.30;;
5704;SDS011;2877;48.238;11.160;2022-11-18T04:39:45;0.70;;;0.40;;
5704;SDS011;2877;48.238;11.160;2022-11-18T04:42:10;0.40;;;0.40;;
5704;SDS011;2877;48.238;11.160;2022-11-18T04:44:36;0.30;;;0.30;;
5704;SDS011;2877;48.238;11.160;2022-11-18T04:47:03;0.30;;;0.30;;
5704;SDS011;2877;48.238;11.160;2022-11-18T04:49:29;0.30;;;0.30;;
5704;SDS011;2877;48.238;11.160;2022-11-18T04:51:55;0.50;;;0.30;;
5704;SDS011;2877;48.238;11.160;2022-11-18T04:54:22;0.40;;;0.40;;
5704;SDS011;2877;48.238;11.160;2022-11-18T04:56:49;0.30;;;0.30;;
5704;SDS011;2877;48.238;11.160;2022-11-18T04:59:15;3.33;;;0.50;;
5704;SDS011;2877;48.238;11.160;2022-11-18T05:01:42;0.40;;;0.40;;
5704;SDS011;2877;48.238;11.160;2022-11-18T05:04:11;0.40;;;0.40;;
5704;SDS011;2877;48.238;11.160;2022-11-18T05:06:38;0.30;;;0.30;;
5704;SDS011;2877;48.238;11.160;2022-11-18T05:09:04;0.40;;;0.40;;
5704;SDS011;2877;48.238;11.160;2022-11-18T05:11:29;1.47;;;0.43;;
5704;SDS011;2877;48.238;11.160;2022-11-18T05:14:14;0.30;;;0.30;;
5704;SDS011;2877;48.238;11.160;2022-11-18T05:16:40;0.40;;;0.40;;
5704;SDS011;2877;48.238;11.160;2022-11-18T05:19:06;0.30;;;0.30;;
5704;SDS011;2877;48.238;11.160;2022-11-18T05:21:32;0.40;;;0.40;;
5704;SDS011;2877;48.238;11.160;2022-11-18T05:23:58;0.80;;;0.53;;
5704;SDS011;2877;48.238;11.160;2022-11-18T05:26:23;0.60;;;0.40;;
5704;SDS011;2877;48.238;11.160;2022-11-18T05:28:49;1.80;;;0.43;;
5704;SDS011;2877;48.238;11.160;2022-11-18T05:31:16;1.27;;;0.40;;
5704;SDS011;2877;48.238;11.160;2022-11-18T05:33:42;0.30;;;0.30;;
5704;SDS011;2877;48.238;11.160;2022-11-18T05:36:09;0.70;;;0.40;;
5704;SDS011;2877;48.238;11.160;2022-11-18T05:38:39;0.40;;;0.40;;
5704;SDS011;2877;48.238;11.160;2022-11-18T05:41:06;0.40;;;0.40;;
5704;SDS011;2877;48.238;11.160;2022-11-18T05:43:32;0.40;;;0.40;;
5704;SDS011;2877;48.238;11.160;2022-11-18T05:45:58;0.87;;;0.40;;
5704;SDS011;2877;48.238;11.160;2022-11-18T05:48:24;0.40;;;0.40;;
5704;SDS011;2877;48.238;11.160;2022-11-18T05:50:51;0.73;;;0.40;;
5704;SDS011;2877;48.238;11.160;2022-11-18T05:53:18;0.97;;;0.50;;
5704;SDS011;2877;48.238;11.160;2022-11-18T05:58:38;0.43;;;0.43;;
5704;SDS011;2877;48.238;11.160;2022-11-18T06:01:04;0.40;;;0.40;;
5704;SDS011;2877;48.238;11.160;2022-11-18T06:03:34;0.50;;;0.50;;
5704;SDS011;2877;48.238;11.160;2022-11-18T06:06:02;0.40;;;0.40;;
5704;SDS011;2877;48.238;11.160;2022-11-18T06:08:35;0.40;;;0.40;;
5704;SDS011;2877;48.238;11.160;2022-11-18T06:11:05;0.63;;;0.50;;
5704;SDS011;2877;48.238;11.160;2022-11-18T06:13:37;0.60;;;0.47;;
5704;SDS011;2877;48.238;11.160;2022-11-18T06:16:06;0.53;;;0.50;;
5704;SDS011;2877;48.238;11.160;2022-11-18T06:18:32;0.97;;;0.80;;
5704;SDS011;2877;48.238;11.160;2022-11-18T06:21:00;0.50;;;0.50;;
5704;SDS011;2877;48.238;11.160;2022-11-18T06:23:29;0.83;;;0.50;;
5704;SDS011;2877;48.238;11.160;2022-11-18T06:25:58;0.50;;;0.50;;
5704;SDS011;2877;48.238;11.160;2022-11-18T06:28:24;0.30;;;0.30;;
5704;SDS011;2877;48.238;11.160;2022-11-18T06:30:51;0.57;;;0.40;;
5704;SDS011;2877;48.238;11.160;2022-11-18T06:33:16;0.40;;;0.40;;
5704;SDS011;2877;48.238;11.160;2022-11-18T06:35:42;1.80;;;0.30;;
5704;SDS011;2877;48.238;11.160;2022-11-18T06:38:07;0.40;;;0.40;;
5704;SDS011;2877;48.238;11.160;2022-11-18T06:40:33;0.80;;;0.80;;
5704;SDS011;2877;48.238;11.160;2022-11-18T06:43:04;0.40;;;0.40;;
5704;SDS011;2877;48.238;11.160;2022-11-18T06:45:49;2.77;;;0.50;;
5704;SDS011;2877;48.238;11.160;2022-11-18T06:48:33;0.40;;;0.40;;
5704;SDS011;2877;48.238;11.160;2022-11-18T06:50:59;0.40;;;0.40;;
5704;SDS011;2877;48.238;11.160;2022-11-18T06:53:24;0.50;;;0.40;;
5704;SDS011;2877;48.238;11.160;2022-11-18T06:55:50;0.40;;;0.40;;
5704;SDS011;2877;48.238;11.160;2022-11-18T06:58:15;0.40;;;0.40;;
5704;SDS011;2877;48.238;11.160;2022-11-18T07:00:41;0.40;;;0.40;;
5704;SDS011;2877;48.238;11.160;2022-11-18T07:03:06;0.50;;;0.50;;
5704;SDS011;2877;48.238;11.160;2022-11-18T07:05:32;0.60;;;0.60;;
5704;SDS011;2877;48.238;11.160;2022-11-18T07:07:57;0.63;;;0.63;;
5704;SDS011;2877;48.238;11.160;2022-11-18T07:10:23;0.83;;;0.53;;
5704;SDS011;2877;48.238;11.160;2022-11-18T07:12:48;1.57;;;0.80;;
5704;SDS011;2877;48.238;11.160;2022-11-18T07:15:14;0.93;;;0.93;;
5704;SDS011;2877;48.238;11.160;2022-11-18T07:17:40;0.80;;;0.60;;
5704;SDS011;2877;48.238;11.160;2022-11-18T07:20:05;1.30;;;1.20;;
5704;SDS011;2877;48.238;11.160;2022-11-18T07:22:31;0.50;;;0.50;;
5704;SDS011;2877;48.238;11.160;2022-11-18T07:24:57;0.70;;;0.50;;
5704;SDS011;2877;48.238;11.160;2022-11-18T07:27:22;1.53;;;0.40;;
5704;SDS011;2877;48.238;11.160;2022-11-18T07:29:48;0.60;;;0.60;;
5704;SDS011;2877;48.238;11.160;2022-11-18T07:32:13;0.50;;;0.50;;
5704;SDS011;2877;48.238;11.160;2022-11-18T07:34:39;0.40;;;0.40;;
5704;SDS011;2877;48.238;11.160;2022-11-18T07:37:04;0.70;;;0.70;;
5704;SDS011;2877;48.238;11.160;2022-11-18T07:39:30;0.90;;;0.80;;
5704;SDS011;2877;48.238;11.160;2022-11-18T07:41:56;0.80;;;0.80;;
5704;SDS011;2877;48.238;11.160;2022-11-18T07:44:21;0.90;;;0.90;;
5704;SDS011;2877;48.238;11.160;2022-11-18T07:46:47;0.80;;;0.80;;
5704;SDS011;2877;48.238;11.160;2022-11-18T07:49:12;1.03;;;1.03;;
5704;SDS011;2877;48.238;11.160;2022-11-18T07:51:38;1.17;;;1.03;;
5704;SDS011;2877;48.238;11.160;2022-11-18T07:54:13;1.10;;;1.10;;
5704;SDS011;2877;48.238;11.160;2022-11-18T07:56:41;1.43;;;1.33;;
5704;SDS011;2877;48.238;11.160;2022-11-18T07:59:06;1.10;;;1.10;;
5704;SDS011;2877;48.238;11.160;2022-11-18T08:01:32;1.10;;;1.10;;
5704;SDS011;2877;48.238;11.160;2022-11-18T08:04:05;1.30;;;1.20;;
5704;SDS011;2877;48.238;11.160;2022-11-18T08:06:32;1.23;;;1.23;;
5704;SDS011;2877;48.238;11.160;2022-11-18T08:08:59;3.47;;;1.30;;
5704;SDS011;2877;48.238;11.160;2022-11-18T08:11:25;1.93;;;1.47;;
5704;SDS011;2877;48.238;11.160;2022-11-18T08:13:50;1.63;;;1.53;;
5704;SDS011;2877;48.238;11.160;2022-11-18T08:16:17;1.77;;;1.60;;
5704;SDS011;2877;48.238;11.160;2022-11-18T08:18:44;3.40;;;2.80;;
5704;SDS011;2877;48.238;11.160;2022-11-18T08:21:11;1.80;;;1.70;;
5704;SDS011;2877;48.238;11.160;2022-11-18T08:23:37;1.50;;;1.40;;
5704;SDS011;2877;48.238;11.160;2022-11-18T08:26:04;3.13;;;1.70;;
5704;SDS011;2877;48.238;11.160;2022-11-18T08:28:35;2.67;;;2.47;;
5704;SDS011;2877;48.238;11.160;2022-11-18T08:33:38;2.00;;;1.90;;
5704;SDS011;2877;48.238;11.160;2022-11-18T08:36:08;2.80;;;2.20;;
5704;SDS011;2877;48.238;11.160;2022-11-18T08:38:36;2.00;;;1.83;;
5704;SDS011;2877;48.238;11.160;2022-11-18T08:41:02;2.37;;;2.10;;
5704;SDS011;2877;48.238;11.160;2022-11-18T08:43:29;2.60;;;1.70;;
5704;SDS011;2877;48.238;11.160;2022-11-18T08:45:54;1.17;;;1.13;;
5704;SDS011;2877;48.238;11.160;2022-11-18T08:48:20;1.07;;;1.07;;
5704;SDS011;2877;48.238;11.160;2022-11-18T08:50:45;1.10;;;1.10;;
5704;SDS011;2877;48.238;11.160;2022-11-18T08:53:11;1.43;;;0.97;;
5704;SDS011;2877;48.238;11.160;2022-11-18T08:55:36;0.70;;;0.70;;
5704;SDS011;2877;48.238;11.160;2022-11-18T08:58:02;0.70;;;0.70;;
5704;SDS011;2877;48.238;11.160;2022-11-18T09:00:28;0.60;;;0.60;;
5704;SDS011;2877;48.238;11.160;2022-11-18T09:02:53;0.60;;;0.60;;
5704;SDS011;2877;48.238;11.160;2022-11-18T09:05:19;0.43;;;0.43;;
5704;SDS011;2877;48.238;11.160;2022-11-18T09:07:44;0.40;;;0.40;;
5704;SDS011;2877;48.238;11.160;2022-11-18T09:10:10;0.50;;;0.40;;
5704;SDS011;2877;48.238;11.160;2022-11-18T09:12:35;0.50;;;0.50;;
5704;SDS011;2877;48.238;11.160;2022-11-18T09:15:01;0.30;;;0.30;;
5704;SDS011;2877;48.238;11.160;2022-11-18T09:17:26;0.50;;;0.50;;
5704;SDS011;2877;48.238;11.160;2022-11-18T09:19:52;0.30;;;0.30;;
5704;SDS011;2877;48.238;11.160;2022-11-18T09:22:17;0.30;;;0.30;;
5704;SDS011;2877;48.238;11.160;2022-11-18T09:24:43;0.50;;;0.50;;
5704;SDS011;2877;48.238;11.160;2022-11-18T09:27:09;0.40;;;0.40;;
5704;SDS011;2877;48.238;11.160;2022-11-18T09:29:34;0.60;;;0.40;;
5704;SDS011;2877;48.238;11.160;2022-11-18T09:32:00;0.30;;;0.30;;
5704;SDS011;2877;48.238;11.160;2022-11-18T09:34:26;0.70;;;0.40;;
5704;SDS011;2877;48.238;11.160;2022-11-18T09:36:53;0.60;;;0.60;;
5704;SDS011;2877;48.238;11.160;2022-11-18T09:39:21;0.47;;;0.47;;
5704;SDS011;2877;48.238;11.160;2022-11-18T09:41:58;0.83;;;0.60;;
5704;SDS011;2877;48.238;11.160;2022-11-18T09:44:58;0.60;;;0.40;;
5704;SDS011;2877;48.238;11.160;2022-11-18T09:49:59;1.00;;;1.00;;
5704;SDS011;2877;48.238;11.160;2022-11-18T09:52:32;0.40;;;0.40;;
5704;SDS011;2877;48.238;11.160;2022-11-18T09:55:03;0.80;;;0.80;;
5704;SDS011;2877;48.238;11.160;2022-11-18T09:57:37;0.40;;;0.40;;
5704;SDS011;2877;48.238;11.160;2022-11-18T10:00:25;0.43;;;0.43;;
5704;SDS011;2877;48.238;11.160;2022-11-18T10:08:14;1.00;;;1.00;;
5704;SDS011;2877;48.238;11.160;2022-11-18T10:10:53;0.60;;;0.60;;
5704;SDS011;2877;48.238;11.160;2022-11-18T10:16:23;0.53;;;0.53;;
5704;SDS011;2877;48.238;11.160;2022-11-18T10:22:02;0.40;;;0.40;;
5704;SDS011;2877;48.238;11.160;2022-11-18T10:24:51;0.73;;;0.50;;
5704;SDS011;2877;48.238;11.160;2022-11-18T10:27:18;0.50;;;0.50;;
5704;SDS011;2877;48.238;11.160;2022-11-18T10:29:45;0.60;;;0.60;;
5704;SDS011;2877;48.238;11.160;2022-11-18T10:32:17;0.80;;;0.67;;
5704;SDS011;2877;48.238;11.160;2022-11-18T10:34:53;0.73;;;0.60;;
5704;SDS011;2877;48.238;11.160;2022-11-18T10:39:53;0.70;;;0.70;;
5704;SDS011;2877;48.238;11.160;2022-11-18T10:47:56;0.60;;;0.60;;
5704;SDS011;2877;48.238;11.160;2022-11-18T10:50:41;0.97;;;0.97;;
5704;SDS011;2877;48.238;11.160;2022-11-18T10:53:29;0.77;;;0.77;;
5704;SDS011;2877;48.238;11.160;2022-11-18T10:56:01;0.83;;;0.83;;
5704;SDS011;2877;48.238;11.160;2022-11-18T10:58:29;1.20;;;1.10;;
5704;SDS011;2877;48.238;11.160;2022-11-18T11:03:43;1.20;;;1.00;;
5704;SDS011;2877;48.238;11.160;2022-11-18T11:06:21;1.33;;;1.17;;
5704;SDS011;2877;48.238;11.160;2022-11-18T11:08:49;0.90;;;0.90;;
5704;SDS011;2877;48.238;11.160;2022-11-18T11:11:26;0.60;;;0.57;;
5704;SDS011;2877;48.238;11.160;2022-11-18T11:14:03;0.90;;;0.70;;
5704;SDS011;2877;48.238;11.160;2022-11-18T11:16:52;0.50;;;0.50;;
5704;SDS011;2877;48.238;11.160;2022-11-18T11:19:46;0.40;;;0.40;;
5704;SDS011;2877;48.238;11.160;2022-11-18T11:22:27;0.67;;;0.67;;
5704;SDS011;2877;48.238;11.160;2022-11-18T11:24:52;0.50;;;0.50;;
5704;SDS011;2877;48.238;11.160;2022-11-18T11:27:22;1.73;;;0.60;;
5704;SDS011;2877;48.238;11.160;2022-11-18T11:35:36;0.80;;;0.80;;
5704;SDS011;2877;48.238;11.160;2022-11-18T11:38:20;0.73;;;0.73;;
5704;SDS011;2877;48.238;11.160;2022-11-18T11:41:22;0.57;;;0.57;;
5704;SDS011;2877;48.238;11.160;2022-11-18T11:52:36;0.40;;;0.40;;
5704;SDS011;2877;48.238;11.160;2022-11-18T11:55:41;0.43;;;0.43;;
5704;SDS011;2877;48.238;11.160;2022-11-18T11:58:45;0.40;;;0.40;;
5704;SDS011;2877;48.238;11.160;2022-11-18T12:03:52;0.40;;;0.40;;
5704;SDS011;2877;48.238;11.160;2022-11-18T12:06:33;0.60;;;0.60;;
5704;SDS011;2877;48.238;11.160;2022-11-18T12:09:09;0.70;;;0.70;;
5704;SDS011;2877;48.238;11.160;2022-11-18T12:11:50;1.87;;;1.53;;
5704;SDS011;2877;48.238;11.160;2022-11-18T12:14:35;3.23;;;2.00;;
5704;SDS011;2877;48.238;11.160;2022-11-18T12:17:20;0.60;;;0.60;;
5704;SDS011;2877;48.238;11.160;2022-11-18T12:19:51;0.60;;;0.60;;
5704;SDS011;2877;48.238;11.160;2022-11-18T12:22:16;0.60;;;0.60;;
5704;SDS011;2877;48.238;11.160;2022-11-18T12:24:42;0.60;;;0.60;;
5704;SDS011;2877;48.238;11.160;2022-11-18T12:29:51;0.50;;;0.50;;
5704;SDS011;2877;48.238;11.160;2022-11-18T12:32:37;0.60;;;0.60;;
5704;SDS011;2877;48.238;11.160;2022-11-18T12:43:04;0.70;;;0.70;;
5704;SDS011;2877;48.238;11.160;2022-11-18T12:45:54;0.73;;;0.73;;
5704;SDS011;2877;48.238;11.160;2022-11-18T12:48:39;0.70;;;0.70;;
5704;SDS011;2877;48.238;11.160;2022-11-18T12:53:41;0.77;;;0.77;;
5704;SDS011;2877;48.238;11.160;2022-11-18T12:58:57;1.17;;;0.80;;
5704;SDS011;2877;48.238;11.160;2022-11-18T13:01:33;0.73;;;0.73;;
5704;SDS011;2877;48.238;11.160;2022-11-18T13:04:06;1.33;;;1.30;;
5704;SDS011;2877;48.238;11.160;2022-11-18T13:06:44;0.70;;;0.70;;
5704;SDS011;2877;48.238;11.160;2022-11-18T13:09:14;1.10;;;1.10;;
5704;SDS011;2877;48.238;11.160;2022-11-18T13:11:45;1.00;;;1.00;;
5704;SDS011;2877;48.238;11.160;2022-11-18T13:14:29;1.00;;;1.00;;
5704;SDS011;2877;48.238;11.160;2022-11-18T13:20:29;1.00;;;1.00;;
5704;SDS011;2877;48.238;11.160;2022-11-18T13:22:58;0.90;;;0.90;;
5704;SDS011;2877;48.238;11.160;2022-11-18T13:25:44;0.97;;;0.97;;
5704;SDS011;2877;48.238;11.160;2022-11-18T13:33:41;0.67;;;0.67;;
5704;SDS011;2877;48.238;11.160;2022-11-18T13:36:16;0.80;;;0.80;;
5704;SDS011;2877;48.238;11.160;2022-11-18T13:38:54;1.40;;;1.30;;
5704;SDS011;2877;48.238;11.160;2022-11-18T13:41:28;2.00;;;1.77;;
5704;SDS011;2877;48.238;11.160;2022-11-18T13:46:36;1.63;;;1.53;;
5704;SDS011;2877;48.238;11.160;2022-11-18T13:49:03;1.47;;;1.37;;
5704;SDS011;2877;48.238;11.160;2022-11-18T13:51:29;3.33;;;3.03;;
5704;SDS011;2877;48.238;11.160;2022-11-18T13:53:55;1.47;;;1.20;;
5704;SDS011;2877;48.238;11.160;2022-11-18T13:56:25;1.30;;;1.30;;
5704;SDS011;2877;48.238;11.160;2022-11-18T13:58:53;1.40;;;1.30;;
5704;SDS011;2877;48.238;11.160;2022-11-18T14:01:24;1.80;;;1.70;;
5704;SDS011;2877;48.238;11.160;2022-11-18T14:03:53;1.20;;;1.20;;
5704;SDS011;2877;48.238;11.160;2022-11-18T14:09:16;1.80;;;1.70;;
5704;SDS011;2877;48.238;11.160;2022-11-18T14:11:57;2.07;;;1.97;;
5704;SDS011;2877;48.238;11.160;2022-11-18T14:14:33;1.80;;;1.70;;
5704;SDS011;2877;48.238;11.160;2022-11-18T14:19:57;1.70;;;1.60;;
5704;SDS011;2877;48.238;11.160;2022-11-18T14:22:24;1.10;;;1.00;;
5704;SDS011;2877;48.238;11.160;2022-11-18T14:24:53;1.40;;;1.30;;
5704;SDS011;2877;48.238;11.160;2022-11-18T14:35:38;1.33;;;1.23;;
5704;SDS011;2877;48.238;11.160;2022-11-18T14:38:15;1.10;;;1.00;;
5704;SDS011;2877;48.238;11.160;2022-11-18T14:40:43;1.20;;;1.20;;
5704;SDS011;2877;48.238;11.160;2022-11-18T14:43:12;1.27;;;1.17;;
5704;SDS011;2877;48.238;11.160;2022-11-18T14:45:38;1.00;;;1.00;;
5704;SDS011;2877;48.238;11.160;2022-11-18T14:48:04;0.60;;;0.60;;
5704;SDS011;2877;48.238;11.160;2022-11-18T14:50:32;1.07;;;0.97;;
5704;SDS011;2877;48.238;11.160;2022-11-18T14:52:58;1.23;;;0.90;;
5704;SDS011;2877;48.238;11.160;2022-11-18T14:55:24;0.83;;;0.83;;
5704;SDS011;2877;48.238;11.160;2022-11-18T14:57:49;1.20;;;1.10;;
5704;SDS011;2877;48.238;11.160;2022-11-18T15:00:15;0.87;;;0.87;;
5704;SDS011;2877;48.238;11.160;2022-11-18T15:02:41;1.20;;;1.13;;
5704;SDS011;2877;48.238;11.160;2022-11-18T15:05:07;1.37;;;1.27;;
5704;SDS011;2877;48.238;11.160;2022-11-18T15:07:32;0.80;;;0.80;;
5704;SDS011;2877;48.238;11.160;2022-11-18T15:09:58;0.80;;;0.80;;
5704;SDS011;2877;48.238;11.160;2022-11-18T15:12:23;1.50;;;1.10;;
5704;SDS011;2877;48.238;11.160;2022-11-18T15:14:49;0.90;;;0.90;;
5704;SDS011;2877;48.238;11.160;2022-11-18T15:17:15;0.60;;;0.60;;
5704;SDS011;2877;48.238;11.160;2022-11-18T15:19:40;1.70;;;1.60;;
5704;SDS011;2877;48.238;11.160;2022-11-18T15:22:06;1.30;;;1.20;;
5704;SDS011;2877;48.238;11.160;2022-11-18T15:24:32;1.43;;;1.33;;
5704;SDS011;2877;48.238;11.160;2022-11-18T15:26:57;3.00;;;1.40;;
5704;SDS011;2877;48.238;11.160;2022-11-18T15:29:23;1.10;;;1.10;;
5704;SDS011;2877;48.238;11.160;2022-11-18T15:31:50;5.10;;;3.40;;
5704;SDS011;2877;48.238;11.160;2022-11-18T15:34:16;6.77;;;4.70;;
5704;SDS011;2877;48.238;11.160;2022-11-18T15:36:44;7.23;;;4.40;;
5704;SDS011;2877;48.238;11.160;2022-11-18T15:39:10;4.50;;;3.70;;
5704;SDS011;2877;48.238;11.160;2022-11-18T15:41:36;4.77;;;4.03;;
5704;SDS011;2877;48.238;11.160;2022-11-18T15:44:03;9.30;;;5.83;;
5704;SDS011;2877;48.238;11.160;2022-11-18T15:46:29;2.13;;;2.03;;
5704;SDS011;2877;48.238;11.160;2022-11-18T15:48:57;7.20;;;6.07;;
5704;SDS011;2877;48.238;11.160;2022-11-18T15:51:24;8.43;;;4.80;;
5704;SDS011;2877;48.238;11.160;2022-11-18T15:53:50;6.00;;;4.63;;
5704;SDS011;2877;48.238;11.160;2022-11-18T16:01:21;2.13;;;1.30;;
5704;SDS011;2877;48.238;11.160;2022-11-18T16:03:48;1.00;;;1.00;;
5704;SDS011;2877;48.238;11.160;2022-11-18T16:06:14;2.20;;;1.23;;
5704;SDS011;2877;48.238;11.160;2022-11-18T16:08:40;1.00;;;1.00;;
5704;SDS011;2877;48.238;11.160;2022-11-18T16:11:05;1.37;;;1.27;;
5704;SDS011;2877;48.238;11.160;2022-11-18T16:13:52;1.60;;;0.70;;
5704;SDS011;2877;48.238;11.160;2022-11-18T16:16:18;0.80;;;0.80;;
5704;SDS011;2877;48.238;11.160;2022-11-18T16:18:52;4.17;;;2.10;;
5704;SDS011;2877;48.238;11.160;2022-11-18T16:21:22;1.33;;;0.73;;
5704;SDS011;2877;48.238;11.160;2022-11-18T16:23:47;1.50;;;1.40;;
5704;SDS011;2877;48.238;11.160;2022-11-18T16:26:13;1.27;;;1.10;;
5704;SDS011;2877;48.238;11.160;2022-11-18T16:28:39;1.00;;;1.00;;
5704;SDS011;2877;48.238;11.160;2022-11-18T16:31:05;0.90;;;0.90;;
5704;SDS011;2877;48.238;11.160;2022-11-18T16:33:49;2.30;;;0.90;;
5704;SDS011;2877;48.238;11.160;2022-11-18T16:36:15;1.20;;;1.10;;
5704;SDS011;2877;48.238;11.160;2022-11-18T16:38:40;0.80;;;0.80;;
5704;SDS011;2877;48.238;11.160;2022-11-18T16:41:07;3.80;;;1.73;;
5704;SDS011;2877;48.238;11.160;2022-11-18T16:43:52;5.67;;;3.27;;
5704;SDS011;2877;48.238;11.160;2022-11-18T16:46:17;2.80;;;1.70;;
5704;SDS011;2877;48.238;11.160;2022-11-18T16:48:43;1.07;;;0.97;;
5704;SDS011;2877;48.238;11.160;2022-11-18T16:51:27;2.10;;;2.00;;
5704;SDS011;2877;48.238;11.160;2022-11-18T16:53:55;3.57;;;1.60;;
5704;SDS011;2877;48.238;11.160;2022-11-18T16:56:23;2.57;;;2.37;;
5704;SDS011;2877;48.238;11.160;2022-11-18T16:58:53;1.27;;;1.17;;
5704;SDS011;2877;48.238;11.160;2022-11-18T17:01:24;1.43;;;1.37;;
5704;SDS011;2877;48.238;11.160;2022-11-18T17:03:50;1.63;;;1.40;;
5704;SDS011;2877;48.238;11.160;2022-11-18T17:06:20;1.80;;;1.70;;
5704;SDS011;2877;48.238;11.160;2022-11-18T17:08:47;3.10;;;1.90;;
5704;SDS011;2877;48.238;11.160;2022-11-18T17:11:13;1.60;;;1.50;;
5704;SDS011;2877;48.238;11.160;2022-11-18T17:13:39;2.43;;;1.83;;
5704;SDS011;2877;48.238;11.160;2022-11-18T17:16:12;2.80;;;2.60;;
5704;SDS011;2877;48.238;11.160;2022-11-18T17:18:40;6.43;;;4.70;;
5704;SDS011;2877;48.238;11.160;2022-11-18T17:21:11;10.03;;;6.63;;